Yuho Maru No.3 — JD2491 — position and weather

sailwx.info

Track history (hours):
 
Tides and Currents Weather Stations Pressure Air Temp Water Temp Dewpoint Dewpoint Depression Visibility Wind Speed Wind Dir Waves Ship Positions

Yuho Maru No.3

Last reported at 2015-Aug-20 21:22 UTC. Time now 2015-Aug-29 12:39 UTC.
Position N 34°41' E 134°47'.
Warning: this ship's position is 8 days out of date.

Length 65 m; draft 4.2 m.

Type: Tanker. MMSI: 431000336.

Date/timePositionNaut miles runAvg speedWind from/ knotsBaromVisibWave heightAir tempDewpointWater temp
2015-Aug-20 21:22N 34°41' E 134°47'0 0.0
2015-Aug-20 20:25N 34°41' E 134°47'0 0.0
2015-Aug-20 17:32N 34°41' E 134°47'0 0.0
2015-Aug-20 16:18N 34°41' E 134°47'0 0.0
2015-Aug-20 12:33N 34°41' E 134°47'6 2.1
2015-Aug-20 09:25N 34°37' E 134°54'910.4
2015-Aug-20 08:32N 34°36' E 135°05'10 9.7
2015-Aug-20 07:33N 34°40' E 135°15'2 1.9
2015-Aug-20 06:33N 34°42' E 135°16'0 0.0
2015-Aug-20 05:33N 34°42' E 135°16'0 0.2
2015-Aug-20 04:33N 34°42' E 135°16'1110.7
2015-Aug-20 03:33N 34°32' E 135°13'1412.7
2015-Aug-20 02:25N 34°19' E 135°04'1112.8
2015-Aug-20 01:33N 34°08' E 135°02'231 5.3
2015-Aug-18 06:03N 35°05' E 139°33'611.3
2015-Aug-18 05:33N 35°07' E 139°40'9 9.2
2015-Aug-18 04:33N 35°14' E 139°46'410.6
2015-Aug-18 04:11N 35°18' E 139°44'111.6
2015-Aug-18 04:09N 35°18' E 139°44'610.6
2015-Aug-18 03:34N 35°25' E 139°43'9 9.1
2015-Aug-18 02:34N 35°31' E 139°51'4 4.4
2015-Aug-18 01:33N 35°31' E 139°46'0 0.2
2015-Aug-18 00:34N 35°31' E 139°46'0 0.1
2015-Aug-17 23:33N 35°31' E 139°46'2 2.3
2015-Aug-17 22:34N 35°29' E 139°48'1 0.7
2015-Aug-17 21:33N 35°29' E 139°49'0 0.0
2015-Aug-17 20:33N 35°29' E 139°49'0 0.0
2015-Aug-17 19:33N 35°29' E 139°49'0 0.0
2015-Aug-17 18:33N 35°29' E 139°49'0 0.0
2015-Aug-17 17:33N 35°29' E 139°49'0 0.0
2015-Aug-17 16:33N 35°29' E 139°49'0 0.0
2015-Aug-17 15:34N 35°29' E 139°49'0 0.0
2015-Aug-17 14:33N 35°29' E 139°49'0 0.0
2015-Aug-17 13:33N 35°29' E 139°49'0 0.0
2015-Aug-17 12:33N 35°29' E 139°49'0 0.0
2015-Aug-17 11:33N 35°29' E 139°49'0 0.0
2015-Aug-17 10:33N 35°29' E 139°49'9 8.7
2015-Aug-17 09:33N 35°23' E 139°41'0 0.1
2015-Aug-17 08:33N 35°23' E 139°41'0 0.1
2015-Aug-17 07:33N 35°23' E 139°41'0 0.0
2015-Aug-17 06:33N 35°23' E 139°41'0 0.0
2015-Aug-17 05:33N 35°23' E 139°41'1 0.6
2015-Aug-17 04:33N 35°22' E 139°41'0 0.0
2015-Aug-17 03:33N 35°22' E 139°41'0 0.0
2015-Aug-17 02:33N 35°22' E 139°41'0 0.0
2015-Aug-17 01:33N 35°22' E 139°41'0 0.0
2015-Aug-17 00:33N 35°22' E 139°41'0 0.1
2015-Aug-16 23:33N 35°22' E 139°41'0 0.1
2015-Aug-16 22:33N 35°22' E 139°41'0 0.0
2015-Aug-16 21:33N 35°22' E 139°41'0 0.0
2015-Aug-16 20:33N 35°22' E 139°41'0 0.0
2015-Aug-16 19:33N 35°22' E 139°41'0 0.1
2015-Aug-16 18:33N 35°22' E 139°41'1211.8
2015-Aug-16 17:33N 35°12' E 139°47'1211.6
2015-Aug-16 16:33N 35°01' E 139°39'  
2015-Aug-11 07:33N 35°04' E 139°35'1110.7
2015-Aug-11 06:34N 35°11' E 139°45'1110.7
2015-Aug-11 05:34N 35°21' E 139°42'1110.8
2015-Aug-11 04:33N 35°29' E 139°51'8 7.8
2015-Aug-11 03:33N 35°28' E 140°01'0 0.0
2015-Aug-11 02:33N 35°28' E 140°01'0 0.0
2015-Aug-11 01:34N 35°28' E 140°01'0 0.0
2015-Aug-11 00:33N 35°28' E 140°01'0 0.0
2015-Aug-10 23:33N 35°28' E 140°01'8 7.9
2015-Aug-10 22:33N 35°36' E 140°05'1 1.2
2015-Aug-10 21:33N 35°36' E 140°06'  
Track history (hours):
 
Tides and Currents Weather Stations Pressure Air Temp Water Temp Dewpoint Dewpoint Depression Visibility Wind Speed Wind Dir Waves Ship Positions

Yuho Maru No.3

Last reported at 2015-Aug-20 21:22 UTC. Time now 2015-Aug-29 12:39 UTC.
Position N 34°41' E 134°47'.
Warning: this ship's position is 8 days out of date.

Length 65 m; draft 4.2 m.

Type: Tanker. MMSI: 431000336.

Date/timePositionNaut miles runAvg speedWind from/ knotsBaromVisibWave heightAir tempDewpointWater temp
2015-Aug-20 21:22N 34°41' E 134°47'0 0.0
2015-Aug-20 20:25N 34°41' E 134°47'0 0.0
2015-Aug-20 17:32N 34°41' E 134°47'0 0.0
2015-Aug-20 16:18N 34°41' E 134°47'0 0.0
2015-Aug-20 12:33N 34°41' E 134°47'6 2.1
2015-Aug-20 09:25N 34°37' E 134°54'910.4
2015-Aug-20 08:32N 34°36' E 135°05'10 9.7
2015-Aug-20 07:33N 34°40' E 135°15'2 1.9
2015-Aug-20 06:33N 34°42' E 135°16'0 0.0
2015-Aug-20 05:33N 34°42' E 135°16'0 0.2
2015-Aug-20 04:33N 34°42' E 135°16'1110.7
2015-Aug-20 03:33N 34°32' E 135°13'1412.7
2015-Aug-20 02:25N 34°19' E 135°04'1112.8
2015-Aug-20 01:33N 34°08' E 135°02'231 5.3
2015-Aug-18 06:03N 35°05' E 139°33'611.3
2015-Aug-18 05:33N 35°07' E 139°40'9 9.2
2015-Aug-18 04:33N 35°14' E 139°46'410.6
2015-Aug-18 04:11N 35°18' E 139°44'111.6
2015-Aug-18 04:09N 35°18' E 139°44'610.6
2015-Aug-18 03:34N 35°25' E 139°43'9 9.1
2015-Aug-18 02:34N 35°31' E 139°51'4 4.4
2015-Aug-18 01:33N 35°31' E 139°46'0 0.2
2015-Aug-18 00:34N 35°31' E 139°46'0 0.1
2015-Aug-17 23:33N 35°31' E 139°46'2 2.3
2015-Aug-17 22:34N 35°29' E 139°48'1 0.7
2015-Aug-17 21:33N 35°29' E 139°49'0 0.0
2015-Aug-17 20:33N 35°29' E 139°49'0 0.0
2015-Aug-17 19:33N 35°29' E 139°49'0 0.0
2015-Aug-17 18:33N 35°29' E 139°49'0 0.0
2015-Aug-17 17:33N 35°29' E 139°49'0 0.0
2015-Aug-17 16:33N 35°29' E 139°49'0 0.0
2015-Aug-17 15:34N 35°29' E 139°49'0 0.0
2015-Aug-17 14:33N 35°29' E 139°49'0 0.0
2015-Aug-17 13:33N 35°29' E 139°49'0 0.0
2015-Aug-17 12:33N 35°29' E 139°49'0 0.0
2015-Aug-17 11:33N 35°29' E 139°49'0 0.0
2015-Aug-17 10:33N 35°29' E 139°49'9 8.7
2015-Aug-17 09:33N 35°23' E 139°41'0 0.1
2015-Aug-17 08:33N 35°23' E 139°41'0 0.1
2015-Aug-17 07:33N 35°23' E 139°41'0 0.0
2015-Aug-17 06:33N 35°23' E 139°41'0 0.0
2015-Aug-17 05:33N 35°23' E 139°41'1 0.6
2015-Aug-17 04:33N 35°22' E 139°41'0 0.0
2015-Aug-17 03:33N 35°22' E 139°41'0 0.0
2015-Aug-17 02:33N 35°22' E 139°41'0 0.0
2015-Aug-17 01:33N 35°22' E 139°41'0 0.0
2015-Aug-17 00:33N 35°22' E 139°41'0 0.1
2015-Aug-16 23:33N 35°22' E 139°41'0 0.1
2015-Aug-16 22:33N 35°22' E 139°41'0 0.0
2015-Aug-16 21:33N 35°22' E 139°41'0 0.0
2015-Aug-16 20:33N 35°22' E 139°41'0 0.0
2015-Aug-16 19:33N 35°22' E 139°41'0 0.1
2015-Aug-16 18:33N 35°22' E 139°41'1211.8
2015-Aug-16 17:33N 35°12' E 139°47'1211.6
2015-Aug-16 16:33N 35°01' E 139°39'  
2015-Aug-11 07:33N 35°04' E 139°35'1110.7
2015-Aug-11 06:34N 35°11' E 139°45'1110.7
2015-Aug-11 05:34N 35°21' E 139°42'1110.8
2015-Aug-11 04:33N 35°29' E 139°51'8 7.8
2015-Aug-11 03:33N 35°28' E 140°01'0 0.0
2015-Aug-11 02:33N 35°28' E 140°01'0 0.0
2015-Aug-11 01:34N 35°28' E 140°01'0 0.0
2015-Aug-11 00:33N 35°28' E 140°01'0 0.0
2015-Aug-10 23:33N 35°28' E 140°01'8 7.9
2015-Aug-10 22:33N 35°36' E 140°05'1 1.2
2015-Aug-10 21:33N 35°36' E 140°06'  

Dump ship's entire track history